METAR Data
IDs: Format: Raw Decoded Include TAF

Data at: 0307 UTC 20 Jan 2022

KLOT 200250Z AUTO 34013G16KT 10SM CLR M10/M15 A3036 RMK AO2 T11051154